Bremen, Kentucky
Current Conditions -  °F | °C
As of 6:15 AM on Friday 31 Oct 2014 (Local Time) from K2I0 Reporting Station
Drizzle Drizzle  
Wind Chill: 50°   Ceiling: 3500
Heat Index: 50°   Visibility: 7mi
Dew Point: 46°   Wind: 3mph
Humidity: 89%   Direction: 40°NE
Pressure: 30.02"   Gusts: NA
Location:  37.36°N, 87.22°W
Report Text: K2I0 311115Z AUTO 04003KT 7SM DZ OVC035 10/08 A3002 RMK AO2 T00980080
Loading
Personal Weather Stations






























Interactive Weather Map
Tropical Storm Tracking
New forecast layout! Learn more

10-Day Weather Forecast

Advertisements
Track Severe Weather on mobile